Time;durP1;ratioP1;P1;durP2;ratioP2;P2;SDS_P1;SDS_P2;PMS_P1;PMS_P2;Temp;Humidity;BMP_temperature;BMP_pressure;BME280_temperature;BME280_humidity;BME280_pressure;Samples;Min_cycle;Max_cycle;Signal;HPM_P1;HPM_P2
2022/06/13 00:01:23;;;;;;;4.30;2.00;;;22.50;85.60;;;;;;5156591;27;20042;-69
2022/06/13 00:03:49;;;;;;;3.67;1.90;;;22.50;85.90;;;;;;5156157;27;20061;-69
2022/06/13 00:06:16;;;;;;;;;;;22.50;85.80;;;;;;5157133;27;20477;-69
2022/06/13 00:08:42;;;;;;;4.43;1.80;;;22.50;86.30;;;;;;5156302;27;19907;-69
2022/06/13 00:11:11;;;;;;;4.20;2.00;;;22.50;86.10;;;;;;5156356;27;20018;-69
2022/06/13 00:13:42;;;;;;;5.70;2.00;;;22.50;86.40;;;;;;5156208;27;20018;-69
2022/06/13 00:16:09;;;;;;;4.53;2.00;;;22.50;87.20;;;;;;5156153;27;20058;-69
2022/06/13 00:18:35;;;;;;;6.32;2.10;;;22.50;87.30;;;;;;5156114;27;20181;-69
2022/06/13 00:21:02;;;;;;;4.53;1.83;;;22.40;87.80;;;;;;5156435;27;20025;-69
2022/06/13 00:23:28;;;;;;;4.93;1.90;;;22.40;88.20;;;;;;5155966;27;20050;-69
2022/06/13 00:25:55;;;;;;;5.57;1.90;;;22.40;88.80;;;;;;5156318;27;20031;-68
2022/06/13 00:28:21;;;;;;;8.65;2.10;;;22.30;89.10;;;;;;5155932;27;20029;-69
2022/06/13 00:30:47;;;;;;;5.60;1.80;;;22.30;89.60;;;;;;5155798;27;20475;-69
2022/06/13 00:33:13;;;;;;;5.72;2.00;;;22.30;90.20;;;;;;5155797;27;20075;-69
2022/06/13 00:35:40;;;;;;;4.07;1.88;;;22.30;90.60;;;;;;5155937;27;20029;-69
2022/06/13 00:38:06;;;;;;;6.65;1.77;;;22.20;91.10;;;;;;5155967;27;20041;-69
2022/06/13 00:40:34;;;;;;;10.18;2.17;;;22.30;91.50;;;;;;5155965;27;20023;-69
2022/06/13 00:43:01;;;;;;;6.57;2.28;;;22.30;91.90;;;;;;5154139;27;20097;-69
2022/06/13 00:45:33;;;;;;;6.95;2.08;;;22.20;92.60;;;;;;5155423;27;20033;-69
2022/06/13 00:47:59;;;;;;;9.90;2.42;;;22.30;92.90;;;;;;5155700;27;20084;-69
2022/06/13 00:50:29;;;;;;;3.85;2.10;;;22.20;93.40;;;;;;5155329;27;20102;-69
2022/06/13 00:53:09;;;;;;;7.43;2.50;;;22.20;93.90;;;;;;5155736;27;20114;-68
2022/06/13 00:56:06;;;;;;;4.72;2.00;;;22.20;94.30;;;;;;5153672;27;20034;-69
2022/06/13 00:58:38;;;;;;;5.93;2.17;;;22.20;94.70;;;;;;5154526;27;20038;-69
2022/06/13 01:01:04;;;;;;;3.35;1.60;;;22.20;94.80;;;;;;5155565;27;20025;-68
2022/06/13 01:03:34;;;;;;;4.35;1.92;;;22.10;95.10;;;;;;5154868;27;20387;-69
2022/06/13 01:06:02;;;;;;;5.28;2.20;;;22.20;95.10;;;;;;5155176;27;20050;-68
2022/06/13 01:08:32;;;;;;;3.95;1.75;;;22.10;95.30;;;;;;5154058;27;20316;-69
2022/06/13 01:11:17;;;;;;;6.30;2.33;;;22.20;95.30;;;;;;5155074;27;20027;-69
2022/06/13 01:13:49;;;;;;;5.13;1.90;;;22.10;95.20;;;;;;5155161;27;20125;-69
2022/06/13 01:16:18;;;;;;;2.83;1.73;;;22.20;95.20;;;;;;5153385;27;20046;-69
2022/06/13 01:19:19;;;;;;;6.60;2.03;;;22.20;95.20;;;;;;5154830;27;20018;-69
2022/06/13 01:22:15;;;;;;;5.50;2.15;;;22.20;94.90;;;;;;5155271;27;20023;-69
2022/06/13 01:24:53;;;;;;;;;;;22.20;94.70;;;;;;5153726;27;20420;-69
2022/06/13 01:27:22;;;;;;;5.95;1.92;;;22.20;94.70;;;;;;5155129;27;20358;-69
2022/06/13 01:30:03;;;;;;;4.43;2.15;;;22.20;94.40;;;;;;5154738;27;20023;-69
2022/06/13 01:32:58;;;;;;;9.52;1.92;;;22.20;94.20;;;;;;5155032;27;20019;-69
2022/06/13 01:35:29;;;;;;;4.72;2.05;;;22.30;93.80;;;;;;5154646;27;20130;-69
2022/06/13 01:38:17;;;;;;;4.60;2.10;;;22.30;93.50;;;;;;5154727;27;20027;-69
2022/06/13 01:41:09;;;;;;;6.78;2.08;;;22.30;93.40;;;;;;5154709;27;20135;-69
2022/06/13 01:43:51;;;;;;;6.15;1.67;;;22.30;93.20;;;;;;5154623;27;20051;-69
2022/06/13 01:46:38;;;;;;;6.05;2.05;;;22.30;93.20;;;;;;5154707;27;20091;-70
2022/06/13 01:49:13;;;;;;;6.03;1.90;;;22.30;93.10;;;;;;5154102;27;20114;-69
2022/06/13 01:51:58;;;;;;;5.45;2.20;;;22.30;92.90;;;;;;5154590;27;20023;-69
2022/06/13 01:54:57;;;;;;;5.10;2.13;;;22.30;92.80;;;;;;5154598;27;20033;-70
2022/06/13 01:57:39;;;;;;;4.88;2.00;;;22.30;92.30;;;;;;5154608;27;20610;-71
2022/06/13 02:00:24;;;;;;;3.67;2.00;;;22.30;92.30;;;;;;5154467;27;20110;-70
2022/06/13 02:03:27;;;;;;;4.38;2.17;;;22.40;92.10;;;;;;5154144;27;20038;-69
2022/06/13 02:06:11;;;;;;;4.90;1.85;;;22.40;91.90;;;;;;5154484;27;20025;-70
2022/06/13 02:08:50;;;;;;;6.88;1.92;;;22.40;91.60;;;;;;5154241;27;20029;-69
2022/06/13 02:11:38;;;;;;;5.75;1.80;;;22.40;91.40;;;;;;5154100;27;20095;-69
2022/06/13 02:14:07;;;;;;;8.48;2.00;;;22.40;91.30;;;;;;5154177;27;20031;-69
2022/06/13 02:16:43;;;;;;;4.53;2.00;;;22.40;91.10;;;;;;5152382;27;20034;-70
2022/06/13 02:19:12;;;;;;;;;;;22.40;90.90;;;;;;5154114;27;20050;-70
2022/06/13 02:21:44;;;;;;;3.70;1.90;;;22.40;90.90;;;;;;5153524;27;19944;-69
2022/06/13 02:24:14;;;;;;;2.75;1.75;;;22.40;90.70;;;;;;5153888;27;20015;-70
2022/06/13 02:26:43;;;;;;;4.50;2.05;;;22.50;90.50;;;;;;5154272;27;20106;-70
2022/06/13 02:29:17;;;;;;;4.10;1.65;;;22.40;90.50;;;;;;5153404;27;20023;-70
2022/06/13 02:31:48;;;;;;;2.72;1.60;;;22.50;90.30;;;;;;5153475;27;20090;-70
2022/06/13 02:34:21;;;;;;;5.07;1.95;;;22.50;90.20;;;;;;5153547;27;20026;-68
2022/06/13 02:36:51;;;;;;;5.63;2.00;;;22.50;90.20;;;;;;5153381;27;20446;-68
2022/06/13 02:39:41;;;;;;;5.00;1.98;;;22.50;90.10;;;;;;5152865;27;20026;-69
2022/06/13 02:42:37;;;;;;;3.97;1.55;;;22.50;90.00;;;;;;5144830;27;20031;-69
2022/06/13 02:45:19;;;;;;;;;;;22.40;90.20;;;;;;5153389;27;20052;-69
2022/06/13 02:48:04;;;;;;;4.05;1.90;;;22.40;90.20;;;;;;5151162;27;19914;-69
2022/06/13 02:50:50;;;;;;;5.45;1.85;;;22.30;90.20;;;;;;5153175;27;20083;-68
2022/06/13 02:53:23;;;;;;;4.25;2.17;;;22.30;90.10;;;;;;5152562;27;20490;-69
2022/06/13 02:56:20;;;;;;;4.65;1.98;;;22.40;90.10;;;;;;5153525;27;20031;-69
2022/06/13 02:59:09;;;;;;;3.90;1.70;;;22.30;90.20;;;;;;5152976;27;20438;-70
2022/06/13 03:01:42;;;;;;;5.35;1.70;;;22.20;90.40;;;;;;5153482;27;20034;-68
2022/06/13 03:04:16;;;;;;;4.78;1.80;;;22.20;90.20;;;;;;5152639;27;20108;-70
2022/06/13 03:07:06;;;;;;;4.15;1.85;;;22.20;90.30;;;;;;5153397;27;20034;-70
2022/06/13 03:09:47;;;;;;;3.22;1.77;;;22.20;90.20;;;;;;5152775;27;20051;-70
2022/06/13 03:12:27;;;;;;;5.03;1.90;;;22.20;90.20;;;;;;5153078;27;20023;-69
2022/06/13 03:15:21;;;;;;;5.13;2.00;;;22.20;90.40;;;;;;5151016;27;20022;-70
2022/06/13 03:18:05;;;;;;;4.03;1.95;;;22.20;90.20;;;;;;5122921;27;20053;-69
2022/06/13 03:20:42;;;;;;;7.18;2.25;;;22.20;90.20;;;;;;5153359;27;20175;-69
2022/06/13 03:23:34;;;;;;;3.75;1.70;;;22.10;90.50;;;;;;5153972;27;20031;-69
2022/06/13 03:26:14;;;;;;;3.00;1.90;;;22.20;90.10;;;;;;5153979;27;20144;-69
2022/06/13 03:29:16;;;;;;;4.95;1.95;;;22.20;90.20;;;;;;5153972;27;20030;-69
2022/06/13 03:31:50;;;;;;;7.10;2.03;;;22.30;90.00;;;;;;5089221;28;20139;-71
2022/06/13 03:34:24;;;;;;;5.85;1.98;;;22.30;89.80;;;;;;5090107;28;20124;-69
2022/06/13 03:37:20;;;;;;;2.90;1.70;;;22.30;89.80;;;;;;5089856;28;20040;-70
2022/06/13 03:39:51;;;;;;;6.80;2.00;;;22.30;90.00;;;;;;5089989;28;20066;-69
2022/06/13 03:42:19;;;;;;;4.55;2.03;;;22.30;90.00;;;;;;5089688;28;20040;-69
2022/06/13 03:45:16;;;;;;;3.45;1.80;;;22.30;89.90;;;;;;5088884;28;20032;-70
2022/06/13 03:47:49;;;;;;;5.30;1.70;;;22.40;90.00;;;;;;5063447;28;20080;-69
2022/06/13 03:50:23;;;;;;;3.45;1.90;;;22.40;89.50;;;;;;5072806;28;20351;-69
2022/06/13 03:53:15;;;;;;;3.60;1.90;;;22.40;89.60;;;;;;5089846;28;20024;-70
2022/06/13 03:55:54;;;;;;;4.85;1.90;;;22.40;89.70;;;;;;5029272;28;20038;-70
2022/06/13 03:58:49;;;;;;;4.35;1.70;;;22.40;89.30;;;;;;5029899;28;20106;-69
2022/06/13 04:01:21;;;;;;;4.90;2.00;;;22.40;89.30;;;;;;4978281;28;20108;-69
2022/06/13 04:03:47;;;;;;;3.88;1.80;;;22.40;89.50;;;;;;5012891;28;20045;-69
2022/06/13 04:06:48;;;;;;;6.63;2.05;;;22.50;89.30;;;;;;5037912;28;20060;-69
2022/06/13 04:09:56;;;;;;;6.55;1.98;;;22.40;89.40;;;;;;5069277;28;20024;-69
2022/06/13 04:12:21;;;;;;;4.82;2.00;;;22.40;89.10;;;;;;4990031;28;20038;-70
2022/06/13 04:15:08;;;;;;;4.18;1.92;;;22.50;89.30;;;;;;4990199;28;20034;-69
2022/06/13 04:17:54;;;;;;;2.83;1.95;;;22.50;89.30;;;;;;4990823;28;20086;-69
2022/06/13 04:20:49;;;;;;;4.13;2.20;;;22.50;89.40;;;;;;4990820;28;20121;-69
2022/06/13 04:23:36;;;;;;;3.33;1.80;;;22.40;89.50;;;;;;4990757;28;20038;-69
2022/06/13 04:26:15;;;;;;;4.82;1.70;;;22.50;89.10;;;;;;4974323;28;20114;-69
2022/06/13 04:29:00;;;;;;;8.52;1.80;;;22.60;88.90;;;;;;4991087;28;20039;-69
2022/06/13 04:31:28;;;;;;;2.97;1.67;;;22.60;88.20;;;;;;4990867;28;20060;-69
2022/06/13 04:34:13;;;;;;;5.95;2.05;;;22.80;87.70;;;;;;5049592;28;20036;-69
2022/06/13 04:36:41;;;;;;;3.15;1.75;;;22.80;87.00;;;;;;5049336;28;20171;-69
2022/06/13 04:39:10;;;;;;;6.07;1.67;;;23.00;86.40;;;;;;5049885;28;20025;-69
2022/06/13 04:41:44;;;;;;;3.25;1.70;;;23.00;86.40;;;;;;5034178;28;20040;-68
2022/06/13 04:44:18;;;;;;;3.78;1.70;;;23.00;86.40;;;;;;5090358;28;20113;-69
2022/06/13 04:46:44;;;;;;;3.97;1.55;;;23.10;86.00;;;;;;5098371;27;20032;-69
2022/06/13 04:49:56;;;;;;;4.50;2.03;;;23.10;86.00;;;;;;5157848;27;20046;-69
2022/06/13 04:52:44;;;;;;;6.60;1.92;;;23.20;85.90;;;;;;5155382;27;20497;-68
2022/06/13 04:55:28;;;;;;;5.53;1.83;;;23.20;85.40;;;;;;5154999;27;20033;-69
2022/06/13 04:57:54;;;;;;;7.65;2.20;;;23.20;85.70;;;;;;5155093;27;20057;-69
2022/06/13 05:00:22;;;;;;;6.15;1.90;;;23.50;85.70;;;;;;5156660;27;20011;-69
2022/06/13 05:02:53;;;;;;;3.15;1.60;;;24.50;83.30;;;;;;5157131;27;20042;-69
2022/06/13 05:05:43;;;;;;;3.22;1.60;;;26.10;80.20;;;;;;5157045;27;20481;-70
2022/06/13 05:08:26;;;;;;;3.78;1.52;;;27.40;75.10;;;;;;5157257;27;20018;-70
2022/06/13 05:11:03;;;;;;;4.82;1.45;;;29.20;71.70;;;;;;5157465;27;20031;-70
2022/06/13 05:13:29;;;;;;;2.60;1.30;;;30.10;68.50;;;;;;5155105;27;20041;-70
2022/06/13 05:16:29;;;;;;;3.75;1.42;;;31.20;65.30;;;;;;5156285;27;20497;-70
2022/06/13 05:19:14;;;;;;;5.05;1.30;;;31.80;63.50;;;;;;5157234;27;20138;-69
2022/06/13 05:21:50;;;;;;;3.45;1.50;;;31.60;63.30;;;;;;5155466;27;20023;-70
2022/06/13 05:24:30;;;;;;;3.72;1.38;;;32.80;62.00;;;;;;5157169;27;20050;-70
2022/06/13 05:26:56;;;;;;;2.95;1.30;;;34.30;58.70;;;;;;5157235;27;20076;-70
2022/06/13 05:29:25;;;;;;;;;;;33.40;60.00;;;;;;5156858;27;20026;-70
2022/06/13 05:31:52;;;;;;;2.95;1.30;;;33.90;59.10;;;;;;5156534;27;20320;-70
2022/06/13 05:34:29;;;;;;;3.47;1.27;;;35.10;57.50;;;;;;5156812;27;20026;-70
2022/06/13 05:36:55;;;;;;;6.00;1.40;;;35.90;56.00;;;;;;5156621;27;20125;-70
2022/06/13 05:39:21;;;;;;;3.30;1.13;;;37.00;54.70;;;;;;5156720;27;20026;-69
2022/06/13 05:41:47;;;;;;;2.92;1.10;;;37.10;52.90;;;;;;5156039;27;20066;-70
2022/06/13 05:44:14;;;;;;;5.60;1.20;;;37.10;53.80;;;;;;5156182;27;20022;-70
2022/06/13 05:46:40;;;;;;;4.45;1.35;;;37.00;52.80;;;;;;5156647;27;20193;-70
2022/06/13 05:49:07;;;;;;;3.97;1.10;;;37.90;52.10;;;;;;5156527;27;20021;-70
2022/06/13 05:51:33;;;;;;;6.45;1.30;;;38.40;52.10;;;;;;5156210;27;20023;-70
2022/06/13 05:54:00;;;;;;;4.25;1.25;;;38.00;51.60;;;;;;5154716;27;20058;-70
2022/06/13 05:56:27;;;;;;;5.43;1.30;;;37.90;51.60;;;;;;5155443;27;20037;-70
2022/06/13 05:58:53;;;;;;;5.57;1.25;;;38.20;51.30;;;;;;5155994;27;20370;-70
2022/06/13 06:01:20;;;;;;;9.00;1.23;;;38.60;50.10;;;;;;5156030;27;20019;-71
2022/06/13 06:03:46;;;;;;;7.22;1.50;;;39.00;49.90;;;;;;5155270;27;20054;-69
2022/06/13 06:06:23;;;;;;;7.43;1.20;;;39.60;49.50;;;;;;5155596;27;20102;-70
2022/06/13 06:08:50;;;;;;;4.72;1.25;;;39.20;49.80;;;;;;5155950;27;20378;-70
2022/06/13 06:11:16;;;;;;;4.32;1.30;;;39.80;48.90;;;;;;5154506;27;20034;-68
2022/06/13 06:13:43;;;;;;;3.03;1.00;;;41.10;47.70;;;;;;5154076;27;20101;-69
2022/06/13 06:16:13;;;;;;;2.28;1.13;;;39.90;47.70;;;;;;5154035;27;20031;-68
2022/06/13 06:18:39;;;;;;;4.20;1.30;;;38.40;49.30;;;;;;5156395;27;20033;-68
2022/06/13 06:21:05;;;;;;;6.38;1.25;;;38.10;49.80;;;;;;5156247;27;20022;-69
2022/06/13 06:23:31;;;;;;;5.38;1.48;;;39.00;48.70;;;;;;5155869;27;20028;-69
2022/06/13 06:25:58;;;;;;;6.30;1.20;;;40.10;47.30;;;;;;5155690;27;20050;-70
2022/06/13 06:28:26;;;;;;;6.97;1.20;;;39.70;46.90;;;;;;5155796;27;20026;-70
2022/06/13 06:30:55;;;;;;;4.45;1.30;;;39.60;48.00;;;;;;5155674;27;20427;-70
2022/06/13 06:33:22;;;;;;;5.07;1.23;;;39.00;47.90;;;;;;5155669;27;20023;-70
2022/06/13 06:35:49;;;;;;;4.05;1.55;;;39.20;47.70;;;;;;5155493;27;20035;-70
2022/06/13 06:38:15;;;;;;;5.35;1.10;;;40.60;47.30;;;;;;5155346;27;20031;-69
2022/06/13 06:40:41;;;;;;;7.90;1.38;;;40.50;46.50;;;;;;5155828;27;20134;-70
2022/06/13 06:43:09;;;;;;;5.03;1.27;;;41.10;46.00;;;;;;5155883;27;20015;-70
2022/06/13 06:45:36;;;;;;;3.17;1.20;;;42.10;44.80;;;;;;5155341;27;20109;-69
2022/06/13 06:48:02;;;;;;;4.20;1.05;;;42.70;44.20;;;;;;5155476;27;20031;-70
2022/06/13 06:50:32;;;;;;;4.70;1.17;;;42.40;43.30;;;;;;5155235;27;20368;-71
2022/06/13 06:52:58;;;;;;;8.75;2.42;;;42.20;44.60;;;;;;5155446;27;20041;-71
2022/06/13 07:01:03;;;;;;;3.75;1.00;;;41.90;43.00;;;;;;5155758;27;20026;-71
2022/06/13 07:03:30;;;;;;;3.15;1.20;;;40.40;44.10;;;;;;5154898;27;20067;-71
2022/06/13 07:05:56;;;;;;;4.65;1.27;;;39.90;45.60;;;;;;5154729;27;20034;-70
2022/06/13 07:08:22;;;;;;;4.40;1.20;;;40.10;46.10;;;;;;5155142;27;20019;-71
2022/06/13 07:10:49;;;;;;;4.53;1.00;;;40.80;44.60;;;;;;5155081;27;20125;-71
2022/06/13 07:13:18;;;;;;;4.32;1.10;;;39.80;45.20;;;;;;5154588;27;20047;-71
2022/06/13 07:15:46;;;;;;;3.53;1.02;;;39.70;45.30;;;;;;5154967;27;20118;-71
2022/06/13 07:18:12;;;;;;;4.38;1.40;;;39.60;45.70;;;;;;5154583;27;20454;-71
2022/06/13 07:20:38;;;;;;;4.93;1.33;;;38.70;46.10;;;;;;5155184;27;20466;-69
2022/06/13 07:23:04;;;;;;;5.45;1.30;;;38.10;46.60;;;;;;5154929;27;20027;-72
2022/06/13 07:25:31;;;;;;;4.47;1.30;;;37.30;47.20;;;;;;5154483;27;20141;-71
2022/06/13 07:27:58;;;;;;;5.63;1.20;;;36.40;48.40;;;;;;5154316;27;20031;-69
2022/06/13 07:30:27;;;;;;;5.60;1.30;;;35.40;49.00;;;;;;5154320;27;20113;-70
2022/06/13 07:32:54;;;;;;;5.10;1.20;;;34.90;49.90;;;;;;5154588;27;20075;-70
2022/06/13 07:35:23;;;;;;;4.75;1.50;;;34.30;50.50;;;;;;5154681;27;20018;-70
2022/06/13 07:40:36;;;;;;;4.60;1.42;;;33.90;51.20;;;;;;5154710;27;20501;-69
2022/06/13 07:43:05;;;;;;;3.35;1.48;;;33.40;51.70;;;;;;5154206;27;20102;-70
2022/06/13 07:45:36;;;;;;;5.05;1.38;;;33.70;51.70;;;;;;5154445;27;20050;-70
2022/06/13 07:48:02;;;;;;;6.90;1.52;;;33.80;51.40;;;;;;5154387;27;20424;-70
2022/06/13 07:50:29;;;;;;;6.43;1.42;;;33.90;51.30;;;;;;5153459;27;20023;-70
2022/06/13 07:52:57;;;;;;;5.00;1.60;;;34.10;51.10;;;;;;5153868;27;20343;-69
2022/06/13 07:55:25;;;;;;;3.50;1.40;;;33.80;51.40;;;;;;5153978;27;20083;-71
2022/06/13 07:57:52;;;;;;;3.78;1.40;;;33.70;51.80;;;;;;5153591;27;20035;-70
2022/06/13 08:00:22;;;;;;;5.90;1.70;;;33.60;51.20;;;;;;5153684;27;20018;-70
2022/06/13 08:02:49;;;;;;;4.85;1.30;;;33.70;50.50;;;;;;5153137;27;20050;-70
2022/06/13 08:05:16;;;;;;;2.13;1.20;;;33.40;50.70;;;;;;5153441;27;20490;-70
2022/06/13 08:07:42;;;;;;;5.32;1.30;;;33.40;50.60;;;;;;5153873;27;20052;-70
2022/06/13 08:10:09;;;;;;;3.50;1.20;;;33.80;50.50;;;;;;5154021;27;20148;-69
2022/06/13 08:12:35;;;;;;;4.47;1.73;;;33.70;49.80;;;;;;5154142;27;20062;-69
2022/06/13 08:15:01;;;;;;;6.70;2.05;;;34.10;50.60;;;;;;5153842;27;20099;-69
2022/06/13 08:17:27;;;;;;;;;;;33.70;49.10;;;;;;5156070;27;20035;-69
2022/06/13 08:19:53;;;;;;;3.70;1.40;;;33.70;50.10;;;;;;5157737;27;19925;-69
2022/06/13 08:22:20;;;;;;;;;;;34.00;49.40;;;;;;5157745;27;20042;-70
2022/06/13 08:24:46;;;;;;;5.93;1.25;;;33.60;49.60;;;;;;5157179;27;19914;-70
2022/06/13 08:27:11;;;;;;;;;;;33.40;49.80;;;;;;5156525;27;20106;-69
2022/06/13 08:29:38;;;;;;;5.82;1.30;;;33.20;49.30;;;;;;5157589;27;19946;-70
2022/06/13 08:32:04;;;;;;;;;;;33.00;50.20;;;;;;5157987;27;20063;-69
2022/06/13 08:34:30;;;;;;;5.15;1.27;;;33.20;50.00;;;;;;5157543;27;19903;-70
2022/06/13 08:36:56;;;;;;;3.47;1.00;;;33.40;49.60;;;;;;5157944;27;20327;-69
2022/06/13 08:39:23;;;;;;;5.18;1.60;;;33.70;49.40;;;;;;5157492;27;20046;-69
2022/06/13 08:42:11;;;;;;;4.05;1.20;;;34.20;48.80;;;;;;5157824;27;20026;-70
2022/06/13 08:45:07;;;;;;;4.65;1.40;;;34.40;48.50;;;;;;5157280;27;20023;-69
2022/06/13 08:47:46;;;;;;;2.92;1.13;;;34.00;49.20;;;;;;5156003;27;20436;-69
2022/06/13 08:50:38;;;;;;;3.65;1.10;;;34.10;48.90;;;;;;5157346;27;20102;-69
2022/06/13 08:53:12;;;;;;;3.45;1.15;;;34.00;49.30;;;;;;5156774;27;20513;-69
2022/06/13 08:55:45;;;;;;;4.28;1.30;;;33.90;49.40;;;;;;5157639;27;20051;-69
2022/06/13 08:58:17;;;;;;;5.15;1.30;;;32.90;49.60;;;;;;5157182;27;20019;-69
2022/06/13 09:01:06;;;;;;;3.00;1.20;;;32.90;50.80;;;;;;5157211;27;20064;-70
2022/06/13 09:03:48;;;;;;;3.75;1.20;;;32.80;50.30;;;;;;5148404;27;20062;-70
2022/06/13 09:06:39;;;;;;;9.90;2.92;;;32.40;50.40;;;;;;5157076;27;20038;-70
2022/06/13 09:09:10;;;;;;;5.22;2.00;;;32.20;55.00;;;;;;5156855;27;20106;-69
2022/06/13 09:11:50;;;;;;;6.43;2.30;;;32.20;53.40;;;;;;5157052;27;20027;-68
2022/06/13 09:14:20;;;;;;;4.57;1.40;;;32.40;53.10;;;;;;5157146;27;20023;-69
2022/06/13 09:17:25;;;;;;;4.25;1.50;;;32.40;51.20;;;;;;5156345;27;20104;-69
2022/06/13 09:20:02;;;;;;;2.08;1.05;;;32.50;51.30;;;;;;5153480;27;20041;-70
2022/06/13 09:22:43;;;;;;;4.55;1.27;;;32.60;51.00;;;;;;5156504;27;20398;-69
2022/06/13 09:25:32;;;;;;;5.65;1.40;;;32.60;51.70;;;;;;5156686;27;20015;-69
2022/06/13 09:28:18;;;;;;;8.02;1.60;;;32.70;51.10;;;;;;5154992;27;20035;-69
2022/06/13 09:30:54;;;;;;;;;;;32.80;51.30;;;;;;5156828;27;20125;-69
2022/06/13 09:33:30;;;;;;;5.10;1.15;;;33.00;51.20;;;;;;5156167;27;19903;-69
2022/06/13 09:35:59;;;;;;;5.05;1.27;;;32.90;51.10;;;;;;5156369;27;20035;-69
2022/06/13 09:38:31;;;;;;;4.40;1.33;;;32.90;51.50;;;;;;5156388;27;20023;-69
2022/06/13 09:41:04;;;;;;;5.63;1.48;;;32.80;51.60;;;;;;5156189;27;20026;-69
2022/06/13 09:43:33;;;;;;;3.10;1.17;;;32.80;52.00;;;;;;5155808;27;20479;-69
2022/06/13 09:46:34;;;;;;;7.47;1.60;;;33.00;51.70;;;;;;5155869;27;20098;-70
2022/06/13 09:49:19;;;;;;;4.03;1.42;;;33.00;51.00;;;;;;5135153;27;20567;-69
2022/06/13 09:52:21;;;;;;;3.20;1.10;;;32.60;51.30;;;;;;5156146;27;20375;-69
2022/06/13 09:54:57;;;;;;;4.03;1.38;;;32.50;52.20;;;;;;5092022;28;20036;-69
2022/06/13 09:57:29;;;;;;;;;;;32.60;52.40;;;;;;5075884;28;20458;-70
2022/06/13 10:00:03;;;;;;;6.60;1.55;;;32.70;52.10;;;;;;5091795;28;20375;-70
2022/06/13 10:02:50;;;;;;;4.22;1.60;;;32.80;52.90;;;;;;5091763;28;20067;-70
2022/06/13 10:05:32;;;;;;;7.57;1.70;;;33.00;54.50;;;;;;5091885;28;20040;-69
2022/06/13 10:08:29;;;;;;;4.90;1.70;;;33.00;55.60;;;;;;5091966;28;20523;-70
2022/06/13 10:11:14;;;;;;;8.52;1.70;;;33.20;55.40;;;;;;5091859;28;20506;-71
2022/06/13 10:14:19;;;;;;;3.92;1.70;;;33.10;54.30;;;;;;5091731;28;20070;-70
2022/06/13 10:17:17;;;;;;;10.98;2.28;;;33.10;55.20;;;;;;5091296;28;20122;-70
2022/06/13 10:19:55;;;;;;;11.52;2.30;;;33.10;55.90;;;;;;5092173;28;20073;-69
2022/06/13 10:22:50;;;;;;;9.13;1.98;;;33.00;55.40;;;;;;5091243;28;20028;-69
2022/06/13 10:25:37;;;;;;;4.15;1.77;;;32.90;55.50;;;;;;5091639;28;20047;-69
2022/06/13 10:28:22;;;;;;;5.38;1.85;;;32.70;56.10;;;;;;5091824;28;20060;-69
2022/06/13 10:30:54;;;;;;;8.65;1.70;;;32.40;56.90;;;;;;5119590;27;20435;-68
2022/06/13 10:33:44;;;;;;;8.25;2.00;;;31.90;58.10;;;;;;5155510;27;20028;-68
2022/06/13 10:36:32;;;;;;;5.07;1.77;;;31.70;59.10;;;;;;5154708;27;20076;-69
2022/06/13 10:39:04;;;;;;;7.82;1.80;;;31.40;59.70;;;;;;5154517;27;20031;-69
2022/06/13 10:41:36;;;;;;;7.45;1.90;;;31.30;60.30;;;;;;5155178;27;20019;-68
2022/06/13 10:44:05;;;;;;;5.13;1.85;;;31.50;60.20;;;;;;5154777;27;20026;-69
2022/06/13 10:46:31;;;;;;;5.15;2.15;;;31.50;59.40;;;;;;5154543;27;20029;-69
2022/06/13 10:49:04;;;;;;;;;;;31.60;59.30;;;;;;5154881;27;20365;-68
2022/06/13 10:51:30;;;;;;;5.70;2.13;;;31.70;59.20;;;;;;5154850;27;19907;-69
2022/06/13 10:54:23;;;;;;;5.18;1.95;;;31.70;59.20;;;;;;5154344;27;20034;-69
2022/06/13 10:56:53;;;;;;;6.57;1.83;;;32.00;59.70;;;;;;5154388;27;20083;-69
2022/06/13 10:59:24;;;;;;;6.43;1.90;;;31.80;60.00;;;;;;5154357;27;20097;-69
2022/06/13 11:02:00;;;;;;;6.43;1.88;;;32.00;59.30;;;;;;5154303;27;20040;-70
2022/06/13 11:04:27;;;;;;;8.30;2.10;;;32.10;59.50;;;;;;5153287;27;20115;-70
2022/06/13 11:06:57;;;;;;;7.13;1.92;;;31.70;59.70;;;;;;5153459;27;20046;-70
2022/06/13 11:09:40;;;;;;;4.90;1.85;;;31.20;60.50;;;;;;5152624;27;20458;-69
2022/06/13 11:12:18;;;;;;;73.68;5.43;;;31.10;61.60;;;;;;5154524;27;20034;-69
2022/06/13 11:24:21;;;;;;;10.00;2.25;;;31.10;65.90;;;;;;5154883;27;20092;-70
2022/06/13 11:29:37;;;;;;;14.73;2.30;;;31.30;66.80;;;;;;5155382;27;20601;-70
2022/06/13 11:32:06;;;;;;;7.05;2.20;;;31.40;67.30;;;;;;5154694;27;20026;-70
2022/06/13 11:34:38;;;;;;;12.93;2.40;;;31.50;68.50;;;;;;5154262;27;20501;-69
2022/06/13 11:37:13;;;;;;;17.20;2.50;;;31.70;67.90;;;;;;5153271;27;20045;-69
2022/06/13 11:39:45;;;;;;;11.73;2.40;;;31.90;66.60;;;;;;5154662;27;20023;-69
2022/06/13 11:42:26;;;;;;;8.43;2.17;;;32.20;65.70;;;;;;5154362;27;20119;-69
2022/06/13 11:45:01;;;;;;;14.85;2.50;;;32.50;66.60;;;;;;5154034;27;20490;-70
2022/06/13 11:47:43;;;;;;;11.82;2.05;;;32.60;66.30;;;;;;5154161;27;20419;-69
2022/06/13 11:50:20;;;;;;;10.93;2.20;;;31.50;69.10;;;;;;5154474;27;20050;-69
2022/06/13 11:55:39;;;;;;;12.13;2.45;;;30.10;71.80;;;;;;5157471;27;20079;-70
2022/06/13 11:58:05;;;;;;;14.60;2.55;;;30.30;71.10;;;;;;5159093;27;20022;-70
2022/06/13 12:00:46;;;;;;;;;;;30.60;71.00;;;;;;5158425;27;20048;-70
2022/06/13 12:03:19;;;;;;;12.30;2.58;;;30.80;70.70;;;;;;5158221;27;20465;-69
2022/06/13 12:05:50;;;;;;;6.82;2.10;;;31.00;70.30;;;;;;5158376;27;20030;-70
2022/06/13 12:08:16;;;;;;;12.15;2.30;;;31.20;70.10;;;;;;5157933;27;20042;-68
2022/06/13 12:11:19;;;;;;;6.80;1.92;;;31.10;69.00;;;;;;5158308;27;20023;-69
2022/06/13 12:13:47;;;;;;;6.78;1.80;;;31.40;68.40;;;;;;5154505;27;20034;-70
2022/06/13 12:16:22;;;;;;;10.88;1.98;;;31.60;66.20;;;;;;5157632;27;20039;-70
2022/06/13 12:19:16;;;;;;;6.88;1.77;;;31.80;63.00;;;;;;5158600;27;20047;-69
2022/06/13 12:22:12;;;;;;;6.95;1.70;;;32.00;62.80;;;;;;5158543;27;20019;-69
2022/06/13 12:24:56;;;;;;;;;;;32.20;63.40;;;;;;5159033;27;20025;-69
2022/06/13 12:27:37;;;;;;;8.05;1.80;;;32.30;63.60;;;;;;5158090;27;20335;-69
2022/06/13 12:30:15;;;;;;;9.95;1.67;;;32.20;63.80;;;;;;5158293;27;20157;-69
2022/06/13 12:32:46;;;;;;;6.13;1.80;;;32.50;63.40;;;;;;5158430;27;20031;-69
2022/06/13 12:35:44;;;;;;;44.88;2.83;;;32.70;63.30;;;;;;5158053;27;20022;-67
2022/06/13 12:38:35;;;;;;;3.85;1.40;;;32.80;62.10;;;;;;5156481;27;20111;-70
2022/06/13 12:41:36;;;;;;;15.02;1.90;;;32.70;61.90;;;;;;5158441;27;20421;-70
2022/06/13 12:44:13;;;;;;;8.48;1.80;;;32.60;61.50;;;;;;5157775;27;20033;-71
2022/06/13 12:46:56;;;;;;;6.97;1.67;;;32.70;62.30;;;;;;5158172;27;20060;-70
2022/06/13 12:50:08;;;;;;;9.63;1.63;;;32.80;62.10;;;;;;5158202;27;20027;-70
2022/06/13 12:52:49;;;;;;;12.05;1.55;;;32.60;62.90;;;;;;5093400;28;20522;-70
2022/06/13 12:55:36;;;;;;;9.63;1.40;;;32.40;63.10;;;;;;5093519;28;20016;-68
2022/06/13 12:58:23;;;;;;;4.80;1.40;;;32.30;63.60;;;;;;5093781;28;20053;-69
2022/06/13 13:01:13;;;;;;;4.38;1.60;;;32.50;63.80;;;;;;5093730;28;20024;-69
2022/06/13 13:03:48;;;;;;;10.00;1.80;;;32.80;63.50;;;;;;5092941;28;20486;-69
2022/06/13 13:06:49;;;;;;;8.18;1.85;;;32.90;63.40;;;;;;5093303;28;20035;-70
2022/06/13 13:09:40;;;;;;;7.63;1.67;;;33.10;63.40;;;;;;5093673;28;20506;-71
2022/06/13 13:12:43;;;;;;;6.30;1.70;;;33.00;63.80;;;;;;5093288;28;20040;-69
2022/06/13 13:15:29;;;;;;;9.77;2.28;;;32.50;64.90;;;;;;5093569;28;20027;-70
2022/06/13 13:18:00;;;;;;;6.05;1.73;;;32.20;64.70;;;;;;5093377;28;20047;-70
2022/06/13 13:21:17;;;;;;;6.07;2.00;;;32.20;65.00;;;;;;5093979;28;20059;-70
2022/06/13 13:23:59;;;;;;;5.70;1.90;;;32.30;64.80;;;;;;5139469;27;20046;-69
2022/06/13 13:26:51;;;;;;;5.32;1.70;;;32.50;64.60;;;;;;5157659;27;20454;-69
2022/06/13 13:29:48;;;;;;;10.88;2.13;;;32.40;64.80;;;;;;5157793;27;20023;-69
2022/06/13 13:32:23;;;;;;;7.25;1.52;;;32.40;64.20;;;;;;5157602;27;20026;-69
2022/06/13 13:35:16;;;;;;;6.30;2.17;;;32.60;63.20;;;;;;5157134;27;20026;-69
2022/06/13 13:37:50;;;;;;;6.55;1.85;;;32.60;63.30;;;;;;5157128;27;20121;-69
2022/06/13 13:40:33;;;;;;;6.05;1.50;;;32.80;62.80;;;;;;5157614;27;20022;-69
2022/06/13 13:43:24;;;;;;;7.72;2.05;;;32.90;62.80;;;;;;5156424;27;20373;-69
2022/06/13 13:46:05;;;;;;;7.05;1.95;;;33.10;63.60;;;;;;5157484;27;20022;-70
2022/06/13 13:49:00;;;;;;;6.63;1.65;;;32.80;64.30;;;;;;5157318;27;20530;-69
2022/06/13 13:51:40;;;;;;;8.15;1.83;;;33.00;63.80;;;;;;5150910;27;20394;-68
2022/06/13 13:54:21;;;;;;;6.88;1.75;;;32.80;62.80;;;;;;5156530;27;20036;-68
2022/06/13 13:57:00;;;;;;;3.28;1.50;;;32.80;63.50;;;;;;5156286;27;20059;-69
2022/06/13 13:59:33;;;;;;;6.32;1.45;;;33.00;63.50;;;;;;5156083;27;20026;-69
2022/06/13 14:02:10;;;;;;;11.18;1.88;;;32.80;62.40;;;;;;5155766;27;20026;-69
2022/06/13 14:05:01;;;;;;;8.73;1.90;;;32.90;62.10;;;;;;5156251;27;20073;-69